createdAt,value
2017-08-05T00:00:37.578Z,0
2017-08-05T00:01:47.842Z,0
2017-08-05T00:02:57.796Z,0
2017-08-05T00:04:08.068Z,0
2017-08-05T00:05:18.344Z,0
2017-08-05T00:06:28.616Z,0
2017-08-05T00:07:38.570Z,0
2017-08-05T00:08:48.850Z,0
2017-08-05T00:09:58.494Z,0
2017-08-05T00:11:08.766Z,0
2017-08-05T00:12:19.036Z,0
2017-08-05T00:13:29.321Z,0
2017-08-05T00:14:39.278Z,0
2017-08-05T00:15:49.557Z,0
2017-08-05T00:16:59.557Z,0
2017-08-05T00:18:09.827Z,0
2017-08-05T00:19:20.098Z,0
2017-08-05T00:20:30.056Z,0
2017-08-05T00:21:40.324Z,0
2017-08-05T00:22:50.608Z,0
2017-08-05T00:24:00.877Z,0
2017-08-05T00:25:11.152Z,0
2017-08-05T00:26:21.425Z,0
2017-08-05T00:27:31.695Z,0
2017-08-05T00:28:41.959Z,0
2017-08-05T00:29:52.231Z,0
2017-08-05T00:31:02.502Z,0
2017-08-05T00:32:12.147Z,0
2017-08-05T00:33:22.415Z,0
2017-08-05T00:34:32.692Z,0
2017-08-05T00:35:42.969Z,0
2017-08-05T00:36:53.247Z,0
2017-08-05T00:38:03.518Z,0
2017-08-05T00:39:13.796Z,0
2017-08-05T00:40:24.063Z,0
2017-08-05T00:41:34.338Z,0
2017-08-05T00:42:44.615Z,0
2017-08-05T00:43:54.891Z,0
2017-08-05T00:45:05.169Z,0
2017-08-05T00:46:15.124Z,0
2017-08-05T00:47:25.082Z,0
2017-08-05T00:48:35.359Z,0
2017-08-05T00:49:45.324Z,0
2017-08-05T00:50:55.604Z,0
2017-08-05T00:52:05.876Z,0
2017-08-05T00:53:16.159Z,0
2017-08-05T00:54:26.433Z,0
2017-08-05T00:55:36.700Z,0
2017-08-05T00:56:46.992Z,0
2017-08-05T00:57:57.259Z,0
2017-08-05T00:59:07.209Z,0
2017-08-05T01:00:17.479Z,0
2017-08-05T01:01:27.750Z,0
2017-08-05T01:02:38.022Z,0
2017-08-05T01:03:48.299Z,0
2017-08-05T01:04:58.569Z,0
2017-08-05T01:06:08.845Z,0
2017-08-05T01:07:18.802Z,0
2017-08-05T01:08:29.072Z,0
2017-08-05T01:09:39.363Z,0
2017-08-05T01:10:49.321Z,0
2017-08-05T01:11:59.588Z,0
2017-08-05T01:13:09.856Z,0
2017-08-05T01:14:20.137Z,0
2017-08-05T01:15:30.407Z,0
2017-08-05T01:16:40.690Z,0
2017-08-05T01:17:50.957Z,0
2017-08-05T01:19:01.226Z,0
2017-08-05T01:20:10.872Z,0
2017-08-05T01:21:21.144Z,0
2017-08-05T01:22:31.102Z,0
2017-08-05T01:23:41.375Z,0
2017-08-05T01:24:51.647Z,0
2017-08-05T01:26:01.915Z,0
2017-08-05T01:27:12.184Z,0
2017-08-05T01:28:22.453Z,0
2017-08-05T01:29:32.747Z,0
2017-08-05T01:30:43.028Z,0
2017-08-05T01:31:53.308Z,0
2017-08-05T01:33:03.578Z,0
2017-08-05T01:34:13.854Z,0
2017-08-05T01:35:23.817Z,0
2017-08-05T01:36:34.091Z,0
2017-08-05T01:37:44.378Z,0
2017-08-05T01:38:54.653Z,0
2017-08-05T01:40:04.610Z,0
2017-08-05T01:41:14.881Z,0
2017-08-05T01:42:24.872Z,0
2017-08-05T01:43:35.146Z,0
2017-08-05T01:44:45.414Z,0
2017-08-05T01:45:55.698Z,0
2017-08-05T01:47:06.000Z,0
2017-08-05T01:48:15.642Z,0
2017-08-05T01:49:25.912Z,0
2017-08-05T01:50:35.865Z,0
2017-08-05T01:51:46.132Z,0
2017-08-05T01:52:56.416Z,0
2017-08-05T01:54:06.686Z,0
2017-08-05T01:55:16.648Z,0
2017-08-05T01:56:26.922Z,0
2017-08-05T01:57:37.198Z,0
2017-08-05T01:58:47.155Z,0
2017-08-05T01:59:57.423Z,0
2017-08-05T02:01:07.701Z,0
2017-08-05T02:02:17.662Z,0
2017-08-05T02:03:27.936Z,0
2017-08-05T02:04:37.894Z,0
2017-08-05T02:05:47.534Z,0
2017-08-05T02:06:57.801Z,0
2017-08-05T02:08:07.772Z,0
2017-08-05T02:09:18.196Z,0
2017-08-05T02:10:28.471Z,0
2017-08-05T02:11:38.746Z,0
2017-08-05T02:12:49.016Z,0
2017-08-05T02:13:59.284Z,0
2017-08-05T02:15:09.561Z,0
2017-08-05T02:16:19.833Z,0
2017-08-05T02:17:30.101Z,0
2017-08-05T02:18:40.057Z,0
2017-08-05T02:19:50.326Z,0
2017-08-05T02:21:00.594Z,0
2017-08-05T02:22:10.550Z,0
2017-08-05T02:23:20.536Z,0
2017-08-05T02:24:30.809Z,0
2017-08-05T02:25:41.080Z,0
2017-08-05T02:26:50.822Z,0
2017-08-05T02:28:00.785Z,4
2017-08-05T02:29:10.428Z,4
2017-08-05T02:30:20.699Z,4
2017-08-05T02:31:30.973Z,0
2017-08-05T02:32:41.256Z,4
2017-08-05T02:33:51.533Z,4
2017-08-05T02:35:01.804Z,4
2017-08-05T02:36:11.762Z,4
2017-08-05T02:37:21.733Z,4
2017-08-05T02:38:32.008Z,4
2017-08-05T02:39:42.298Z,4
2017-08-05T02:40:52.575Z,8
2017-08-05T02:42:02.850Z,8
2017-08-05T02:43:13.127Z,8
2017-08-05T02:44:23.398Z,8
2017-08-05T02:45:33.673Z,8
2017-08-05T02:46:43.951Z,12
2017-08-05T02:47:54.256Z,12
2017-08-05T02:49:04.534Z,12
2017-08-05T02:50:14.811Z,16
2017-08-05T02:51:25.084Z,16
2017-08-05T02:52:35.360Z,16
2017-08-05T02:53:45.320Z,20
2017-08-05T02:54:55.590Z,16
2017-08-05T02:56:05.858Z,20
2017-08-05T02:57:15.818Z,24
2017-08-05T02:58:26.095Z,24
2017-08-05T02:59:36.369Z,28
2017-08-05T03:00:46.641Z,40
2017-08-05T03:01:56.915Z,40
2017-08-05T03:03:07.183Z,44
2017-08-05T03:04:17.455Z,48
2017-08-05T03:05:27.743Z,56
2017-08-05T03:06:38.011Z,60
2017-08-05T03:07:48.291Z,64
2017-08-05T03:08:57.927Z,68
2017-08-05T03:10:07.572Z,72
2017-08-05T03:11:17.845Z,72
2017-08-05T03:12:27.803Z,68
2017-08-05T03:13:38.076Z,68
2017-08-05T03:14:48.355Z,68
2017-08-05T03:15:58.003Z,68
2017-08-05T03:17:07.649Z,64
2017-08-05T03:18:17.927Z,64
2017-08-05T03:19:27.880Z,60
2017-08-05T03:20:37.834Z,60
2017-08-05T03:21:48.107Z,68
2017-08-05T03:22:58.386Z,68
2017-08-05T03:24:08.679Z,76
2017-08-05T03:25:18.959Z,84
2017-08-05T03:26:29.229Z,92
2017-08-05T03:27:39.194Z,100
2017-08-05T03:28:49.163Z,116
2017-08-05T03:29:59.123Z,124
2017-08-05T03:31:09.401Z,132
2017-08-05T03:32:19.674Z,144
2017-08-05T03:33:29.942Z,148
2017-08-05T03:34:40.214Z,156
2017-08-05T03:35:50.171Z,152
2017-08-05T03:37:00.441Z,152
2017-08-05T03:38:10.723Z,148
2017-08-05T03:39:20.678Z,144
2017-08-05T03:40:30.951Z,136
2017-08-05T03:41:41.237Z,140
2017-08-05T03:42:51.510Z,144
2017-08-05T03:44:01.783Z,156
2017-08-05T03:45:12.058Z,168
2017-08-05T03:46:22.328Z,184
2017-08-05T03:47:32.594Z,192
2017-08-05T03:48:42.872Z,208
2017-08-05T03:49:53.140Z,224
2017-08-05T03:51:03.409Z,248
2017-08-05T03:52:13.368Z,264
2017-08-05T03:53:23.324Z,280
2017-08-05T03:54:33.620Z,288
2017-08-05T03:55:43.895Z,284
2017-08-05T03:56:54.168Z,284
2017-08-05T03:58:04.443Z,292
2017-08-05T03:59:14.714Z,312
2017-08-05T04:00:24.665Z,352
2017-08-05T04:01:34.945Z,384
2017-08-05T04:02:45.217Z,404
2017-08-05T04:03:55.488Z,428
2017-08-05T04:05:05.764Z,452
2017-08-05T04:06:16.034Z,468
2017-08-05T04:07:26.309Z,484
2017-08-05T04:08:36.580Z,516
2017-08-05T04:09:46.850Z,536
2017-08-05T04:10:57.125Z,536
2017-08-05T04:12:07.083Z,540
2017-08-05T04:13:17.043Z,560
2017-08-05T04:14:27.320Z,588
2017-08-05T04:15:37.593Z,612
2017-08-05T04:16:47.862Z,636
2017-08-05T04:17:58.138Z,664
2017-08-05T04:19:08.124Z,684
2017-08-05T04:20:18.400Z,720
2017-08-05T04:21:28.675Z,788
2017-08-05T04:22:38.944Z,860
2017-08-05T04:23:49.211Z,940
2017-08-05T04:24:58.854Z,1032
2017-08-05T04:26:09.129Z,1136
2017-08-05T04:27:19.098Z,1240
2017-08-05T04:28:29.372Z,1352
2017-08-05T04:29:39.642Z,1480
2017-08-05T04:30:49.921Z,1624
2017-08-05T04:32:00.193Z,1760
2017-08-05T04:33:10.152Z,1912
2017-08-05T04:34:20.110Z,2080
2017-08-05T04:35:30.381Z,2184
2017-08-05T04:36:40.662Z,2216
2017-08-05T04:37:50.934Z,2252
2017-08-05T04:39:01.206Z,2320
2017-08-05T04:40:11.478Z,2400
2017-08-05T04:41:21.440Z,2448
2017-08-05T04:42:31.396Z,2500
2017-08-05T04:43:41.668Z,2540
2017-08-05T04:44:51.945Z,2524
2017-08-05T04:46:02.218Z,2460
2017-08-05T04:47:12.181Z,2364
2017-08-05T04:48:22.459Z,2264
2017-08-05T04:49:32.424Z,2172
2017-08-05T04:50:42.697Z,2100
2017-08-05T04:51:52.658Z,2056
2017-08-05T04:53:02.936Z,2020
2017-08-05T04:54:13.213Z,1992
2017-08-05T04:55:23.179Z,1956
2017-08-05T04:56:33.447Z,1992
2017-08-05T04:57:43.723Z,2012
2017-08-05T04:58:53.997Z,2004
2017-08-05T05:00:03.966Z,2008
2017-08-05T05:01:14.241Z,1988
2017-08-05T05:02:24.519Z,2004
2017-08-05T05:03:34.479Z,2016
2017-08-05T05:04:44.434Z,2016
2017-08-05T05:05:54.395Z,2012
2017-08-05T05:07:04.662Z,2068
2017-08-05T05:08:14.620Z,2108
2017-08-05T05:09:24.892Z,2160
2017-08-05T05:10:35.163Z,2236
2017-08-05T05:11:45.446Z,2288
2017-08-05T05:12:55.413Z,2320
2017-08-05T05:14:05.686Z,2352
2017-08-05T05:15:15.972Z,2352
2017-08-05T05:16:25.930Z,2376
2017-08-05T05:17:36.215Z,2372
2017-08-05T05:18:46.175Z,2420
2017-08-05T05:19:56.457Z,2484
2017-08-05T05:21:06.726Z,2568
2017-08-05T05:22:16.998Z,2692
2017-08-05T05:23:27.272Z,2784
2017-08-05T05:24:37.554Z,2900
2017-08-05T05:25:47.833Z,3072
2017-08-05T05:26:58.109Z,3384
2017-08-05T05:28:07.439Z,3652
2017-08-05T05:29:17.720Z,3860
2017-08-05T05:30:27.991Z,4040
2017-08-05T05:31:38.273Z,4140
2017-08-05T05:32:48.541Z,4192
2017-08-05T05:33:58.503Z,4272
2017-08-05T05:35:08.778Z,4420
2017-08-05T05:36:19.058Z,4680
2017-08-05T05:37:29.013Z,4816
2017-08-05T05:38:39.283Z,4988
2017-08-05T05:39:49.244Z,5196
2017-08-05T05:40:59.213Z,5380
2017-08-05T05:42:09.182Z,5420
2017-08-05T05:43:19.453Z,5372
2017-08-05T05:44:29.725Z,5236
2017-08-05T05:45:39.683Z,5040
2017-08-05T05:46:49.954Z,4888
2017-08-05T05:48:00.222Z,4752
2017-08-05T05:49:10.495Z,4656
2017-08-05T05:50:20.768Z,4532
2017-08-05T05:51:31.041Z,4404
2017-08-05T05:52:41.315Z,4360
2017-08-05T05:53:51.584Z,4396
2017-08-05T05:55:01.555Z,4452
2017-08-05T05:56:11.513Z,4516
2017-08-05T05:57:21.787Z,4624
2017-08-05T05:58:31.753Z,4768
2017-08-05T05:59:42.034Z,4956
2017-08-05T06:00:52.316Z,5116
2017-08-05T06:02:02.588Z,5208
2017-08-05T06:03:12.859Z,5152
2017-08-05T06:04:22.820Z,5132
2017-08-05T06:05:33.100Z,5176
2017-08-05T06:06:43.379Z,5224
2017-08-05T06:07:53.026Z,5252
2017-08-05T06:09:03.300Z,5260
2017-08-05T06:10:13.262Z,5340
2017-08-05T06:11:23.536Z,5440
2017-08-05T06:12:33.820Z,5440
2017-08-05T06:13:44.092Z,5400
2017-08-05T06:14:54.051Z,5432
2017-08-05T06:16:04.326Z,5472
2017-08-05T06:17:14.307Z,5524
2017-08-05T06:18:24.579Z,5588
2017-08-05T06:19:34.853Z,5692
2017-08-05T06:20:45.128Z,5820
2017-08-05T06:21:55.396Z,5948
2017-08-05T06:23:05.362Z,6060
2017-08-05T06:24:15.322Z,6184
2017-08-05T06:25:25.591Z,6316
2017-08-05T06:26:35.549Z,6460
2017-08-05T06:27:45.817Z,6608
2017-08-05T06:28:56.090Z,6744
2017-08-05T06:30:06.049Z,6892
2017-08-05T06:31:16.010Z,7072
2017-08-05T06:32:26.321Z,7268
2017-08-05T06:33:36.593Z,7452
2017-08-05T06:34:46.238Z,7600
2017-08-05T06:35:55.888Z,7712
2017-08-05T06:37:06.171Z,7756
2017-08-05T06:38:16.695Z,7744
2017-08-05T06:39:26.971Z,7704
2017-08-05T06:40:37.252Z,7624
2017-08-05T06:41:47.528Z,7560
2017-08-05T06:42:57.499Z,7552
2017-08-05T06:44:07.776Z,7524
2017-08-05T06:45:17.734Z,7512
2017-08-05T06:46:27.385Z,7580
2017-08-05T06:47:37.342Z,7728
2017-08-05T06:48:47.618Z,7956
2017-08-05T06:49:57.905Z,8172
2017-08-05T06:51:08.178Z,8336
2017-08-05T06:52:18.130Z,8464
2017-08-05T06:53:28.094Z,8520
2017-08-05T06:54:37.744Z,8524
2017-08-05T06:55:48.011Z,8552
2017-08-05T06:56:58.292Z,8640
2017-08-05T06:58:08.570Z,8756
2017-08-05T06:59:18.861Z,8848
2017-08-05T07:00:29.136Z,8876
2017-08-05T07:01:39.156Z,8884
2017-08-05T07:02:49.444Z,8904
2017-08-05T07:03:59.401Z,8884
2017-08-05T07:05:09.363Z,8848
2017-08-05T07:06:19.635Z,8836
2017-08-05T07:07:29.906Z,8812
2017-08-05T07:08:39.864Z,8784
2017-08-05T07:09:49.828Z,8764
2017-08-05T07:11:00.102Z,8732
2017-08-05T07:12:10.392Z,8668
2017-08-05T07:13:20.674Z,8612
2017-08-05T07:14:30.949Z,8552
2017-08-05T07:15:40.921Z,8548
2017-08-05T07:16:51.191Z,8596
2017-08-05T07:18:01.153Z,8656
2017-08-05T07:19:11.428Z,8716
2017-08-05T07:20:21.388Z,8784
2017-08-05T07:21:31.347Z,8848
2017-08-05T07:22:41.619Z,8916
2017-08-05T07:23:51.894Z,8940
2017-08-05T07:25:01.852Z,8900
2017-08-05T07:26:12.125Z,8860
2017-08-05T07:27:22.402Z,8844
2017-08-05T07:28:32.683Z,8824
2017-08-05T07:29:42.647Z,8808
2017-08-05T07:30:52.925Z,8848
2017-08-05T07:32:02.261Z,8936
2017-08-05T07:33:12.537Z,8992
2017-08-05T07:34:22.811Z,9012
2017-08-05T07:35:33.085Z,9000
2017-08-05T07:36:43.359Z,9000
2017-08-05T07:37:53.321Z,9032
2017-08-05T07:39:03.299Z,9160
2017-08-05T07:40:13.588Z,9340
2017-08-05T07:41:23.551Z,9452
2017-08-05T07:42:33.822Z,9524
2017-08-05T07:43:44.114Z,9664
2017-08-05T07:44:54.078Z,9812
2017-08-05T07:46:04.368Z,9972
2017-08-05T07:47:14.643Z,10104
2017-08-05T07:48:24.929Z,10224
2017-08-05T07:49:35.209Z,10328
2017-08-05T07:50:45.482Z,10412
2017-08-05T07:51:55.763Z,10508
2017-08-05T07:53:06.040Z,10552
2017-08-05T07:54:16.002Z,10576
2017-08-05T07:55:25.964Z,10536
2017-08-05T07:56:36.280Z,10496
2017-08-05T07:57:46.563Z,10472
2017-08-05T07:58:56.844Z,10500
2017-08-05T08:00:07.128Z,10584
2017-08-05T08:01:17.112Z,10716
2017-08-05T08:02:27.393Z,10772
2017-08-05T08:03:37.681Z,10872
2017-08-05T08:04:47.968Z,10932
2017-08-05T08:05:58.242Z,11044
2017-08-05T08:07:08.202Z,11148
2017-08-05T08:08:18.157Z,11256
2017-08-05T08:09:28.122Z,11364
2017-08-05T08:10:38.397Z,11416
2017-08-05T08:11:50.676Z,11384
2017-08-05T08:13:00.946Z,11400
2017-08-05T08:14:11.226Z,11544
2017-08-05T08:15:21.185Z,11620
2017-08-05T08:16:31.466Z,11724
2017-08-05T08:17:41.749Z,11760
2017-08-05T08:18:52.025Z,11976
2017-08-05T08:20:01.986Z,12040
2017-08-05T08:21:12.265Z,11988
2017-08-05T08:22:22.546Z,11936
2017-08-05T08:23:33.077Z,11836
2017-08-05T08:24:43.358Z,11684
2017-08-05T08:25:53.632Z,11444
2017-08-05T08:27:03.601Z,11256
2017-08-05T08:28:13.871Z,11124
2017-08-05T08:29:24.143Z,11060
2017-08-05T08:30:34.419Z,11092
2017-08-05T08:31:44.693Z,11156
2017-08-05T08:32:54.972Z,11300
2017-08-05T08:34:05.250Z,11388
2017-08-05T08:35:15.212Z,11512
2017-08-05T08:36:25.494Z,11560
2017-08-05T08:37:35.768Z,11572
2017-08-05T08:38:46.045Z,11576
2017-08-05T08:39:56.325Z,11828
2017-08-05T08:41:06.294Z,11996
2017-08-05T08:42:16.567Z,12184
2017-08-05T08:43:26.529Z,12396
2017-08-05T08:44:36.824Z,12596
2017-08-05T08:45:47.104Z,12592
2017-08-05T08:46:57.380Z,12568
2017-08-05T08:48:07.346Z,12568
2017-08-05T08:49:17.626Z,12524
2017-08-05T08:50:27.903Z,12252
2017-08-05T08:51:38.186Z,12144
2017-08-05T08:52:48.460Z,11940
2017-08-05T08:53:58.740Z,11668
2017-08-05T08:55:09.018Z,11520
2017-08-05T08:56:18.981Z,11428
2017-08-05T08:57:29.258Z,11272
2017-08-05T08:58:39.531Z,11088
2017-08-05T08:59:49.817Z,10912
2017-08-05T09:00:59.780Z,10896
2017-08-05T09:02:10.059Z,10912
2017-08-05T09:03:20.334Z,10592
2017-08-05T09:04:30.610Z,10516
2017-08-05T09:05:40.907Z,10736
2017-08-05T09:06:51.194Z,11096
2017-08-05T09:08:01.468Z,11588
2017-08-05T09:09:11.441Z,11932
2017-08-05T09:10:21.719Z,12264
2017-08-05T09:11:32.001Z,12632
2017-08-05T09:12:42.276Z,12752
2017-08-05T09:13:52.554Z,12736
2017-08-05T09:15:02.512Z,12468
2017-08-05T09:16:12.789Z,12128
2017-08-05T09:17:23.064Z,11584
2017-08-05T09:18:33.025Z,11172
2017-08-05T09:19:43.303Z,10980
2017-08-05T09:20:53.263Z,10852
2017-08-05T09:22:03.536Z,10528
2017-08-05T09:23:13.184Z,10344
2017-08-05T09:24:23.148Z,10360
2017-08-05T09:25:33.425Z,10440
2017-08-05T09:26:43.387Z,10584
2017-08-05T09:27:53.042Z,10664
2017-08-05T09:29:03.317Z,10624
2017-08-05T09:30:12.966Z,10568
2017-08-05T09:31:22.924Z,10396
2017-08-05T09:32:33.202Z,10156
2017-08-05T09:33:43.483Z,9936
2017-08-05T09:34:53.447Z,9780
2017-08-05T09:36:03.728Z,9612
2017-08-05T09:37:13.694Z,9500
2017-08-05T09:38:23.995Z,9320
2017-08-05T09:39:34.283Z,8968
2017-08-05T09:40:44.579Z,8768
2017-08-05T09:41:54.222Z,8692
2017-08-05T09:43:04.190Z,8496
2017-08-05T09:44:14.466Z,8620
2017-08-05T09:45:24.747Z,8892
2017-08-05T09:46:35.029Z,9008
2017-08-05T09:47:45.309Z,9020
2017-08-05T09:48:55.586Z,9084
2017-08-05T09:50:05.865Z,9068
2017-08-05T09:51:16.157Z,9012
2017-08-05T09:52:26.441Z,8852
2017-08-05T09:53:36.724Z,8692
2017-08-05T09:54:46.700Z,8640
2017-08-05T09:55:56.667Z,8804
2017-08-05T09:57:06.951Z,9120
2017-08-05T09:58:16.910Z,9416
2017-08-05T09:59:26.871Z,9668
2017-08-05T10:00:37.150Z,9812
2017-08-05T10:01:47.110Z,9796
2017-08-05T10:02:57.388Z,9744
2017-08-05T10:04:07.668Z,9748
2017-08-05T10:05:17.634Z,9832
2017-08-05T10:06:27.913Z,9984
2017-08-05T10:07:37.875Z,10388
2017-08-05T10:08:47.835Z,10784
2017-08-05T10:09:57.797Z,11144
2017-08-05T10:11:07.781Z,11396
2017-08-05T10:12:18.061Z,11516
2017-08-05T10:13:28.338Z,11492
2017-08-05T10:14:38.615Z,11440
2017-08-05T10:15:48.578Z,11312
2017-08-05T10:16:58.545Z,11156
2017-08-05T10:18:08.820Z,11104
2017-08-05T10:19:19.090Z,10828
2017-08-05T10:20:28.740Z,10264
2017-08-05T10:21:38.709Z,9812
2017-08-05T10:22:48.988Z,9436
2017-08-05T10:23:59.264Z,9140
2017-08-05T10:25:09.547Z,8768
2017-08-05T10:26:19.509Z,8488
2017-08-05T10:27:29.790Z,8020
2017-08-05T10:28:40.062Z,7860
2017-08-05T10:29:50.332Z,7556
2017-08-05T10:31:00.616Z,7352
2017-08-05T10:32:10.893Z,6924
2017-08-05T10:33:21.172Z,7048
2017-08-05T10:34:31.450Z,7196
2017-08-05T10:35:41.724Z,7268
2017-08-05T10:36:51.754Z,7368
2017-08-05T10:38:02.034Z,7452
2017-08-05T10:39:12.314Z,7576
2017-08-05T10:40:22.598Z,7620
2017-08-05T10:41:32.555Z,7332
2017-08-05T10:42:42.833Z,7356
2017-08-05T10:43:52.793Z,7008
2017-08-05T10:45:03.085Z,7008
2017-08-05T10:46:13.053Z,6628
2017-08-05T10:47:23.014Z,6608
2017-08-05T10:48:33.288Z,6672
2017-08-05T10:49:43.284Z,6660
2017-08-05T10:50:53.564Z,6720
2017-08-05T10:52:03.843Z,6820
2017-08-05T10:53:14.126Z,6896
2017-08-05T10:54:23.771Z,6940
2017-08-05T10:55:34.062Z,6948
2017-08-05T10:56:44.336Z,6944
2017-08-05T10:57:54.303Z,6904
2017-08-05T10:59:04.581Z,6888
2017-08-05T11:00:14.854Z,6904
2017-08-05T11:01:25.134Z,6920
2017-08-05T11:02:35.096Z,6940
2017-08-05T11:03:45.089Z,6956
2017-08-05T11:04:55.381Z,6988
2017-08-05T11:06:05.660Z,7028
2017-08-05T11:07:14.996Z,7056
2017-08-05T11:08:24.966Z,7080
2017-08-05T11:09:34.949Z,7120
2017-08-05T11:10:45.227Z,7320
2017-08-05T11:11:55.504Z,7728
2017-08-05T11:13:05.788Z,8136
2017-08-05T11:14:15.763Z,8728
2017-08-05T11:15:26.038Z,9468
2017-08-05T11:16:36.311Z,10064
2017-08-05T11:17:46.275Z,10424
2017-08-05T11:18:56.237Z,10556
2017-08-05T11:20:06.513Z,10284
2017-08-05T11:21:16.793Z,9728
2017-08-05T11:22:27.072Z,9340
2017-08-05T11:23:37.028Z,10556
2017-08-05T11:24:46.997Z,11220
2017-08-05T11:25:56.646Z,14080
2017-08-05T11:27:06.924Z,16004
2017-08-05T11:28:16.882Z,17280
2017-08-05T11:29:26.844Z,16448
2017-08-05T11:30:37.121Z,16736
2017-08-05T11:31:47.403Z,15160
2017-08-05T11:32:57.701Z,14516
2017-08-05T11:34:07.992Z,18496
2017-08-05T11:35:17.959Z,59488
2017-08-05T11:36:28.236Z,85536
2017-08-05T11:37:38.519Z,90336
2017-08-05T11:38:48.795Z,91520
2017-08-05T11:39:59.072Z,92160
2017-08-05T11:41:09.355Z,91424
2017-08-05T11:42:19.648Z,90240
2017-08-05T11:43:29.929Z,84800
2017-08-05T11:44:40.212Z,86400
2017-08-05T11:45:50.188Z,85696
2017-08-05T11:47:00.468Z,79872
2017-08-05T11:48:10.753Z,76224
2017-08-05T11:49:21.036Z,78336
2017-08-05T11:50:31.316Z,81024
2017-08-05T11:51:41.301Z,88224
2017-08-05T11:52:51.590Z,94240
2017-08-05T11:54:01.248Z,93472
2017-08-05T11:55:11.226Z,92288
2017-08-05T11:56:21.517Z,88320
2017-08-05T11:57:31.799Z,81408
2017-08-05T11:58:42.090Z,76384
2017-08-05T11:59:52.480Z,76224
2017-08-05T12:01:02.141Z,74816
2017-08-05T12:02:12.423Z,77376
2017-08-05T12:03:22.399Z,83136
2017-08-05T12:04:32.685Z,84832
2017-08-05T12:05:42.661Z,80768
2017-08-05T12:06:52.957Z,79776
2017-08-05T12:08:02.931Z,72896
2017-08-05T12:09:13.225Z,64608
2017-08-05T12:10:23.515Z,60640
2017-08-05T12:11:33.809Z,70528
2017-08-05T12:12:44.101Z,80096
2017-08-05T12:13:54.390Z,76480
2017-08-05T12:15:04.684Z,78176
2017-08-05T12:16:14.353Z,86080
2017-08-05T12:17:24.330Z,88640
2017-08-05T12:18:34.317Z,88608
2017-08-05T12:19:44.611Z,80928
2017-08-05T12:20:54.586Z,82496
2017-08-05T12:22:04.575Z,81216
2017-08-05T12:23:14.865Z,81696
2017-08-05T12:24:24.838Z,73024
2017-08-05T12:25:35.130Z,77920
2017-08-05T12:26:45.427Z,83072
2017-08-05T12:27:55.723Z,83168
2017-08-05T12:29:06.019Z,80320
2017-08-05T12:30:16.006Z,81216
2017-08-05T12:31:26.295Z,82240
2017-08-05T12:32:36.583Z,85248
2017-08-05T12:33:46.877Z,85120
2017-08-05T12:34:57.174Z,87136
2017-08-05T12:36:07.152Z,89056
2017-08-05T12:37:17.447Z,86752
2017-08-05T12:38:27.739Z,89312
2017-08-05T12:39:38.037Z,97504
2017-08-05T12:40:48.350Z,101024
2017-08-05T12:41:58.672Z,99232
2017-08-05T12:43:08.965Z,103424
2017-08-05T12:44:18.946Z,97184
2017-08-05T12:45:29.233Z,95456
2017-08-05T12:46:41.780Z,83072
2017-08-05T12:47:52.083Z,67296
2017-08-05T12:49:02.377Z,59712
2017-08-05T12:50:12.677Z,62240
2017-08-05T12:51:22.660Z,67104
2017-08-05T12:52:32.949Z,63616
2017-08-05T12:53:42.933Z,59136
2017-08-05T12:54:53.234Z,95520
2017-08-05T12:56:03.532Z,94880
2017-08-05T12:57:13.828Z,78816
2017-08-05T12:58:24.116Z,67616
2017-08-05T12:59:34.411Z,74144
2017-08-05T13:00:44.385Z,67136
2017-08-05T13:01:54.676Z,69024
2017-08-05T13:03:04.655Z,81280
2017-08-05T13:04:14.632Z,87104
2017-08-05T13:05:24.928Z,78176
2017-08-05T13:06:34.904Z,62720
2017-08-05T13:07:45.208Z,63936
2017-08-05T13:08:55.499Z,71296
2017-08-05T13:10:05.165Z,76256
2017-08-05T13:11:15.464Z,76512
2017-08-05T13:12:25.760Z,75136
2017-08-05T13:13:35.738Z,82368
2017-08-05T13:14:46.027Z,97120
2017-08-05T13:15:56.008Z,106208
2017-08-05T13:17:06.306Z,106688
2017-08-05T13:18:16.608Z,104416
2017-08-05T13:19:26.585Z,105664
2017-08-05T13:20:36.565Z,99488
2017-08-05T13:21:46.241Z,101152
2017-08-05T13:22:56.534Z,102720
2017-08-05T13:24:06.514Z,98976
2017-08-05T13:25:16.811Z,100480
2017-08-05T13:26:26.794Z,101984
2017-08-05T13:27:36.772Z,101664
2017-08-05T13:28:47.065Z,91520
2017-08-05T13:29:57.049Z,86816
2017-08-05T13:31:07.344Z,92800
2017-08-05T13:32:17.636Z,93824
2017-08-05T13:33:27.617Z,88416
2017-08-05T13:34:37.603Z,86304
2017-08-05T13:35:47.897Z,90144
2017-08-05T13:36:58.191Z,91808
2017-08-05T13:38:08.487Z,88448
2017-08-05T13:39:18.465Z,93536
2017-08-05T13:40:28.760Z,94112
2017-08-05T13:41:38.746Z,90688
2017-08-05T13:42:49.036Z,97152
2017-08-05T13:43:59.326Z,96064
2017-08-05T13:45:09.630Z,90112
2017-08-05T13:46:19.935Z,86400
2017-08-05T13:47:29.926Z,84608
2017-08-05T13:48:39.925Z,79328
2017-08-05T13:49:50.217Z,74912
2017-08-05T13:51:00.221Z,83136
2017-08-05T13:52:10.207Z,82976
2017-08-05T13:53:20.196Z,86528
2017-08-05T13:54:30.493Z,93024
2017-08-05T13:55:40.786Z,94112
2017-08-05T13:56:51.080Z,89760
2017-08-05T13:58:01.373Z,82528
2017-08-05T13:59:11.356Z,86688
2017-08-05T14:00:21.340Z,88000
2017-08-05T14:01:31.328Z,87616
2017-08-05T14:02:41.626Z,85824
2017-08-05T14:03:51.936Z,82048
2017-08-05T14:05:02.244Z,66144
2017-08-05T14:06:12.549Z,56224
2017-08-05T14:07:22.528Z,63776
2017-08-05T14:08:32.230Z,84736
2017-08-05T14:09:42.524Z,81920
2017-08-05T14:10:52.819Z,87008
2017-08-05T14:12:03.111Z,83808
2017-08-05T14:13:13.099Z,82240
2017-08-05T14:14:23.404Z,80384
2017-08-05T14:15:33.385Z,77376
2017-08-05T14:16:43.681Z,73728
2017-08-05T14:17:53.664Z,71168
2017-08-05T14:19:03.958Z,70560
2017-08-05T14:20:13.936Z,59360
2017-08-05T14:21:23.913Z,60448
2017-08-05T14:22:33.574Z,66656
2017-08-05T14:23:43.560Z,71776
2017-08-05T14:24:53.536Z,71648
2017-08-05T14:26:03.823Z,65376
2017-08-05T14:27:13.486Z,60192
2017-08-05T14:28:23.784Z,59072
2017-08-05T14:29:33.447Z,58784
2017-08-05T14:30:43.744Z,58784
2017-08-05T14:31:53.718Z,62912
2017-08-05T14:33:04.006Z,61664
2017-08-05T14:34:13.983Z,60160
2017-08-05T14:35:24.277Z,61728
2017-08-05T14:36:34.257Z,63744
2017-08-05T14:37:44.237Z,66656
2017-08-05T14:38:54.524Z,68896
2017-08-05T14:40:03.874Z,71072
2017-08-05T14:41:13.860Z,73760
2017-08-05T14:42:24.168Z,78048
2017-08-05T14:43:34.147Z,80000
2017-08-05T14:44:44.439Z,79552
2017-08-05T14:45:54.736Z,78080
2017-08-05T14:47:05.034Z,79136
2017-08-05T14:48:15.014Z,77344
2017-08-05T14:49:25.310Z,83008
2017-08-05T14:50:35.304Z,90752
2017-08-05T14:51:45.594Z,92192
2017-08-05T14:52:55.887Z,89504
2017-08-05T14:54:06.180Z,92800
2017-08-05T14:55:16.165Z,96480
2017-08-05T14:56:25.829Z,99328
2017-08-05T14:57:35.809Z,88864
2017-08-05T14:58:45.812Z,58144
2017-08-05T14:59:56.109Z,39904
2017-08-05T15:01:06.102Z,38848
2017-08-05T15:02:16.400Z,51008
2017-08-05T15:03:26.711Z,78944
2017-08-05T15:04:37.005Z,99808
2017-08-05T15:05:47.308Z,96000
2017-08-05T15:06:57.601Z,74880
2017-08-05T15:08:07.580Z,58560
2017-08-05T15:09:17.874Z,85408
2017-08-05T15:10:28.171Z,89664
2017-08-05T15:11:38.156Z,86464
2017-08-05T15:12:48.444Z,84288
2017-08-05T15:13:58.735Z,85280
2017-08-05T15:15:09.033Z,82976
2017-08-05T15:16:19.324Z,78912
2017-08-05T15:17:29.304Z,80192
2017-08-05T15:18:39.283Z,79168
2017-08-05T15:19:49.576Z,79136
2017-08-05T15:20:59.557Z,82368
2017-08-05T15:22:09.854Z,84608
2017-08-05T15:23:20.171Z,84928
2017-08-05T15:24:30.469Z,73824
2017-08-05T15:25:40.461Z,80032
2017-08-05T15:26:50.757Z,79456
2017-08-05T15:28:00.737Z,82592
2017-08-05T15:29:10.722Z,83680
2017-08-05T15:30:20.701Z,76544
2017-08-05T15:31:30.996Z,87328
2017-08-05T15:32:41.289Z,83584
2017-08-05T15:33:51.265Z,83232
2017-08-05T15:35:00.628Z,87008
2017-08-05T15:36:10.922Z,60704
2017-08-05T15:37:21.227Z,78368
2017-08-05T15:38:31.525Z,32608
2017-08-05T15:39:41.505Z,25472
2017-08-05T15:40:51.492Z,19616
2017-08-05T15:42:01.165Z,17568